createdAt,value
2022-12-24T00:01:03.963Z,40.05
2022-12-24T00:03:30.623Z,41.63
2022-12-24T00:05:57.445Z,39.60
2022-12-24T00:08:24.076Z,38.28
2022-12-24T00:10:52.516Z,39.63
2022-12-24T00:13:19.601Z,39.90
2022-12-24T00:15:46.162Z,37.65
2022-12-24T00:18:12.755Z,37.85
2022-12-24T00:20:39.368Z,37.70
2022-12-24T00:23:06.165Z,35.42
2022-12-24T00:25:32.698Z,39.15
2022-12-24T00:27:59.158Z,37.22
2022-12-24T00:30:25.678Z,36.10
2022-12-24T00:32:52.140Z,34.78
2022-12-24T00:35:18.623Z,33.38
2022-12-24T00:37:48.399Z,36.05
2022-12-24T00:40:15.704Z,35.90
2022-12-24T00:42:42.352Z,32.97
2022-12-24T00:45:10.394Z,32.97
2022-12-24T00:47:37.225Z,34.90
2022-12-24T00:50:05.086Z,31.50
2022-12-24T00:52:31.510Z,35.45
2022-12-24T00:54:58.009Z,34.28
2022-12-24T00:57:24.541Z,34.25
2022-12-24T00:59:51.017Z,32.22
2022-12-24T01:02:17.799Z,30.55
2022-12-24T01:05:02.778Z,31.17
2022-12-24T01:07:29.324Z,32.70
2022-12-24T01:09:55.763Z,30.83
2022-12-24T01:12:22.275Z,29.25
2022-12-24T01:14:48.819Z,30.85
2022-12-24T01:17:15.307Z,29.88
2022-12-24T01:19:41.780Z,30.38
2022-12-24T01:22:08.711Z,30.58
2022-12-24T01:24:35.351Z,29.30
2022-12-24T01:27:01.786Z,29.05
2022-12-24T01:29:28.392Z,27.33
2022-12-24T01:31:54.891Z,28.38
2022-12-24T01:34:21.430Z,29.17
2022-12-24T01:36:47.964Z,28.08
2022-12-24T01:39:14.539Z,27.15
2022-12-24T01:41:59.394Z,29.40
2022-12-24T01:44:36.541Z,27.50
2022-12-24T01:47:17.814Z,28.17
2022-12-24T01:49:52.399Z,28.00
2022-12-24T01:52:22.828Z,27.13
2022-12-24T01:55:00.993Z,26.15
2022-12-24T01:57:39.946Z,24.73
2022-12-24T02:00:12.897Z,25.02
2022-12-24T02:05:09.782Z,26.27
2022-12-24T02:07:36.899Z,25.52
2022-12-24T02:10:03.910Z,22.33
2022-12-24T02:12:35.063Z,23.60
2022-12-24T02:15:02.065Z,23.63
2022-12-24T02:17:34.493Z,22.45
2022-12-24T02:20:19.651Z,24.15
2022-12-24T02:23:10.326Z,24.48
2022-12-24T02:26:14.155Z,22.15
2022-12-24T02:29:17.969Z,23.65
2022-12-24T02:32:17.598Z,22.90
2022-12-24T02:35:08.714Z,21.95
2022-12-24T02:37:40.246Z,20.65
2022-12-24T02:40:16.642Z,22.33
2022-12-24T02:42:50.234Z,22.27
2022-12-24T02:45:22.195Z,22.98
2022-12-24T02:47:49.936Z,22.33
2022-12-24T02:50:17.289Z,22.70
2022-12-24T02:52:45.919Z,19.63
2022-12-24T02:55:17.715Z,21.92
2022-12-24T02:58:05.142Z,19.50
2022-12-24T03:00:43.871Z,19.30
2022-12-24T03:03:32.003Z,22.15
2022-12-24T03:06:16.022Z,18.92
2022-12-24T03:08:55.400Z,19.65
2022-12-24T03:11:21.927Z,21.40
2022-12-24T03:13:49.225Z,20.65
2022-12-24T03:16:21.200Z,18.55
2022-12-24T03:18:50.728Z,19.77
2022-12-24T03:21:25.906Z,17.85
2022-12-24T03:23:52.409Z,18.30
2022-12-24T03:26:20.275Z,17.40
2022-12-24T03:28:47.675Z,17.58
2022-12-24T03:31:15.403Z,19.05
2022-12-24T03:33:42.185Z,18.48
2022-12-24T03:36:09.450Z,16.48
2022-12-24T03:38:36.143Z,17.92
2022-12-24T03:41:03.175Z,17.17
2022-12-24T03:43:30.021Z,19.15
2022-12-24T03:45:56.543Z,15.75
2022-12-24T03:48:26.105Z,17.65
2022-12-24T03:50:58.645Z,16.70
2022-12-24T03:53:25.092Z,17.20
2022-12-24T03:55:51.518Z,15.20
2022-12-24T03:58:18.035Z,16.42
2022-12-24T04:00:44.529Z,15.40
2022-12-24T04:03:11.155Z,16.75
2022-12-24T04:05:37.722Z,16.05
2022-12-24T04:08:04.203Z,16.50
2022-12-24T04:10:30.665Z,16.05
2022-12-24T04:12:57.128Z,16.10
2022-12-24T04:15:23.652Z,15.80
2022-12-24T04:17:50.115Z,13.90
2022-12-24T04:20:16.574Z,15.60
2022-12-24T04:22:43.125Z,15.20
2022-12-24T04:25:10.131Z,14.07
2022-12-24T04:27:36.624Z,13.65
2022-12-24T04:30:03.346Z,13.73
2022-12-24T04:32:29.813Z,14.40
2022-12-24T04:34:56.254Z,14.90
2022-12-24T04:37:22.824Z,14.57
2022-12-24T04:39:49.275Z,13.73
2022-12-24T04:42:15.771Z,13.45
2022-12-24T04:44:42.242Z,13.80
2022-12-24T04:47:08.677Z,13.32
2022-12-24T04:49:35.120Z,13.10
2022-12-24T04:52:01.623Z,14.25
2022-12-24T04:54:28.207Z,12.07
2022-12-24T04:56:54.664Z,12.23
2022-12-24T04:59:21.148Z,14.15
2022-12-24T05:01:47.733Z,13.40
2022-12-24T05:04:14.365Z,12.88
2022-12-24T05:06:40.858Z,12.70
2022-12-24T05:09:07.346Z,13.20
2022-12-24T05:11:33.784Z,12.88
2022-12-24T05:14:00.285Z,13.55
2022-12-24T05:16:26.796Z,11.52
2022-12-24T05:18:53.323Z,11.52
2022-12-24T05:21:23.074Z,11.80
2022-12-24T05:24:08.539Z,11.15
2022-12-24T05:26:50.458Z,12.63
2022-12-24T05:29:17.629Z,13.48
2022-12-24T05:31:45.232Z,11.50
2022-12-24T05:34:13.053Z,12.65
2022-12-24T05:36:40.114Z,10.85
2022-12-24T05:39:13.398Z,11.70
2022-12-24T05:41:40.285Z,10.32
2022-12-24T05:44:06.734Z,11.68
2022-12-24T05:46:33.240Z,10.98
2022-12-24T05:48:59.708Z,10.80
2022-12-24T05:51:26.203Z,10.95
2022-12-24T05:53:52.777Z,10.48
2022-12-24T05:56:22.551Z,10.18
2022-12-24T05:58:49.607Z,11.18
2022-12-24T06:01:16.918Z,10.57
2022-12-24T06:03:43.669Z,9.57
2022-12-24T06:06:15.340Z,9.75
2022-12-24T06:08:42.514Z,9.10
2022-12-24T06:11:12.821Z,9.50
2022-12-24T06:13:40.611Z,9.90
2022-12-24T06:16:08.976Z,9.95
2022-12-24T06:18:36.954Z,9.15
2022-12-24T06:21:04.844Z,9.40
2022-12-24T06:23:33.603Z,9.07
2022-12-24T06:26:01.391Z,9.48
2022-12-24T06:28:32.593Z,8.25
2022-12-24T06:31:03.239Z,9.10
2022-12-24T06:33:31.553Z,8.30
2022-12-24T06:35:58.362Z,7.30
2022-12-24T06:38:25.047Z,7.88
2022-12-24T06:40:52.159Z,9.85
2022-12-24T06:43:18.759Z,7.97
2022-12-24T06:45:46.809Z,7.22
2022-12-24T06:48:13.675Z,7.47
2022-12-24T06:50:40.534Z,7.75
2022-12-24T06:53:07.419Z,8.75
2022-12-24T06:55:33.965Z,8.13
2022-12-24T06:58:00.447Z,7.55
2022-12-24T07:00:27.028Z,7.43
2022-12-24T07:02:53.677Z,6.57
2022-12-24T07:05:20.174Z,7.25
2022-12-24T07:07:46.810Z,7.57
2022-12-24T07:10:15.458Z,7.32
2022-12-24T07:12:42.126Z,7.05
2022-12-24T07:15:10.096Z,6.53
2022-12-24T07:17:36.786Z,6.43
2022-12-24T07:20:04.590Z,6.13
2022-12-24T07:22:31.193Z,6.85
2022-12-24T07:24:57.686Z,6.70
2022-12-24T07:27:24.197Z,5.53
2022-12-24T07:29:50.684Z,6.43
2022-12-24T07:32:17.190Z,6.57
2022-12-24T07:34:43.657Z,6.50
2022-12-24T07:37:10.106Z,6.10
2022-12-24T07:39:36.528Z,6.18
2022-12-24T07:42:05.667Z,5.28
2022-12-24T07:44:32.158Z,6.10
2022-12-24T07:46:58.674Z,5.78
2022-12-24T07:49:25.230Z,5.30
2022-12-24T07:51:51.751Z,5.22
2022-12-24T07:54:18.420Z,6.05
2022-12-24T07:56:44.889Z,5.03
2022-12-24T07:59:13.325Z,5.25
2022-12-24T08:01:40.378Z,4.60
2022-12-24T08:04:07.071Z,5.95
2022-12-24T08:06:33.632Z,5.43
2022-12-24T08:09:00.201Z,5.45
2022-12-24T08:11:26.776Z,5.63
2022-12-24T08:13:53.270Z,4.97
2022-12-24T08:16:19.738Z,5.20
2022-12-24T08:18:46.195Z,4.63
2022-12-24T08:21:12.645Z,5.65
2022-12-24T08:23:39.130Z,5.13
2022-12-24T08:26:10.317Z,5.30
2022-12-24T08:28:37.180Z,5.05
2022-12-24T08:31:03.958Z,4.78
2022-12-24T08:33:30.602Z,4.85
2022-12-24T08:35:57.144Z,5.32
2022-12-24T08:38:24.032Z,4.38
2022-12-24T08:40:53.269Z,4.95
2022-12-24T08:43:20.081Z,4.38
2022-12-24T08:45:49.199Z,4.32
2022-12-24T08:48:16.083Z,4.78
2022-12-24T08:50:42.880Z,4.15
2022-12-24T08:53:10.300Z,4.35
2022-12-24T08:55:37.397Z,4.60
2022-12-24T08:58:04.204Z,3.95
2022-12-24T09:00:30.838Z,4.20
2022-12-24T09:02:58.148Z,4.80
2022-12-24T09:05:25.993Z,4.75
2022-12-24T09:07:52.984Z,3.88
2022-12-24T09:10:19.632Z,4.25
2022-12-24T09:12:46.378Z,3.97
2022-12-24T09:15:14.295Z,4.78
2022-12-24T09:17:41.592Z,3.42
2022-12-24T09:20:09.034Z,4.32
2022-12-24T09:22:39.299Z,4.57
2022-12-24T09:25:07.225Z,3.65
2022-12-24T09:27:34.124Z,3.70
2022-12-24T09:30:00.657Z,3.20
2022-12-24T09:32:27.184Z,3.78
2022-12-24T09:34:53.994Z,3.80
2022-12-24T09:37:20.763Z,3.97
2022-12-24T09:39:47.218Z,3.40
2022-12-24T09:42:16.735Z,3.90
2022-12-24T09:44:48.679Z,3.80
2022-12-24T09:47:36.272Z,4.07
2022-12-24T09:50:09.385Z,4.13
2022-12-24T09:52:40.906Z,3.35
2022-12-24T09:55:13.593Z,3.40
2022-12-24T09:57:42.020Z,4.18
2022-12-24T10:00:22.983Z,3.45
2022-12-24T10:02:50.011Z,3.35
2022-12-24T10:05:18.812Z,2.83
2022-12-24T10:08:08.683Z,2.97
2022-12-24T10:10:35.113Z,4.40
2022-12-24T10:13:20.256Z,3.42
2022-12-24T10:16:08.662Z,3.28
2022-12-24T10:19:10.379Z,3.40
2022-12-24T10:21:39.783Z,3.05
2022-12-24T10:24:25.924Z,3.38
2022-12-24T10:27:02.643Z,2.72
2022-12-24T10:29:32.262Z,3.17
2022-12-24T10:32:07.698Z,3.47
2022-12-24T10:34:41.577Z,3.28
2022-12-24T10:37:16.210Z,2.50
2022-12-24T10:39:43.177Z,2.97
2022-12-24T10:42:12.285Z,3.63
2022-12-24T10:44:38.771Z,3.28
2022-12-24T10:47:08.433Z,3.10
2022-12-24T10:49:46.673Z,2.78
2022-12-24T10:52:21.536Z,2.53
2022-12-24T10:55:28.298Z,4.13
2022-12-24T10:58:02.491Z,3.00
2022-12-24T11:00:35.575Z,2.72
2022-12-24T11:03:22.404Z,3.47
2022-12-24T11:06:07.275Z,2.90
2022-12-24T11:08:35.108Z,2.85
2022-12-24T11:11:05.471Z,2.55
2022-12-24T11:13:37.939Z,3.08
2022-12-24T11:16:10.552Z,3.10
2022-12-24T11:18:50.760Z,2.90
2022-12-24T11:21:24.856Z,2.70
2022-12-24T11:24:28.129Z,2.45
2022-12-24T11:26:55.005Z,3.13
2022-12-24T11:29:24.057Z,3.13
2022-12-24T11:31:52.681Z,2.65
2022-12-24T11:34:30.619Z,3.03
2022-12-24T11:37:17.161Z,3.28
2022-12-24T11:39:48.805Z,2.80
2022-12-24T11:42:44.595Z,3.30
2022-12-24T11:45:24.664Z,2.67
2022-12-24T11:47:52.178Z,2.67
2022-12-24T11:50:21.689Z,3.03
2022-12-24T11:53:00.491Z,2.78
2022-12-24T11:55:42.127Z,2.60
2022-12-24T11:58:36.211Z,2.25
2022-12-24T12:01:25.974Z,2.35
2022-12-24T12:04:00.107Z,2.20
2022-12-24T12:06:40.377Z,2.83
2022-12-24T12:09:12.984Z,2.03
2022-12-24T12:11:41.638Z,2.53
2022-12-24T12:14:18.824Z,2.58
2022-12-24T12:17:16.339Z,2.80
2022-12-24T12:19:49.033Z,2.80
2022-12-24T12:22:30.158Z,2.35
2022-12-24T12:24:59.534Z,2.05
2022-12-24T12:27:35.706Z,2.80
2022-12-24T12:30:05.838Z,2.33
2022-12-24T12:32:43.338Z,2.55
2022-12-24T12:35:18.772Z,2.58
2022-12-24T12:37:52.295Z,2.50
2022-12-24T12:40:20.628Z,2.78
2022-12-24T12:43:09.601Z,2.13
2022-12-24T12:48:44.569Z,1.77
2022-12-24T12:51:41.612Z,2.05
2022-12-24T12:54:26.938Z,2.30
2022-12-24T12:56:56.390Z,2.50
2022-12-24T12:59:44.700Z,2.10
2022-12-24T13:02:37.276Z,2.30
2022-12-24T13:05:22.610Z,1.95
2022-12-24T13:08:03.654Z,1.90
2022-12-24T13:10:48.321Z,2.33
2022-12-24T13:13:30.047Z,2.13
2022-12-24T13:16:23.881Z,2.50
2022-12-24T13:19:17.606Z,1.58
2022-12-24T13:21:46.283Z,2.17
2022-12-24T13:24:21.297Z,2.17
2022-12-24T13:27:15.925Z,1.52
2022-12-24T13:29:52.496Z,2.25
2022-12-24T13:32:22.019Z,1.83
2022-12-24T13:34:52.667Z,1.95
2022-12-24T13:37:31.423Z,1.90
2022-12-24T13:40:10.052Z,2.05
2022-12-24T13:42:58.503Z,1.90
2022-12-24T13:45:31.584Z,1.73
2022-12-24T13:48:12.945Z,1.73
2022-12-24T13:50:58.195Z,2.08
2022-12-24T13:53:45.383Z,1.80
2022-12-24T13:56:16.639Z,1.73
2022-12-24T13:58:46.707Z,2.03
2022-12-24T14:01:42.244Z,2.25
2022-12-24T14:04:21.494Z,2.03
2022-12-24T14:06:50.903Z,1.50
2022-12-24T14:09:21.785Z,2.03
2022-12-24T14:11:57.180Z,2.28
2022-12-24T14:14:38.127Z,1.92
2022-12-24T14:17:23.244Z,2.15
2022-12-24T14:20:00.862Z,2.05
2022-12-24T14:22:34.373Z,1.92
2022-12-24T14:25:22.420Z,1.95
2022-12-24T14:27:58.566Z,2.05
2022-12-24T14:30:28.673Z,1.90
2022-12-24T14:32:55.812Z,1.80
2022-12-24T14:35:27.477Z,2.25
2022-12-24T14:38:14.169Z,1.88
2022-12-24T14:40:56.031Z,1.70
2022-12-24T14:43:46.463Z,1.75
2022-12-24T14:46:21.464Z,1.90
2022-12-24T14:48:55.388Z,2.13
2022-12-24T14:51:24.658Z,1.90
2022-12-24T14:53:51.065Z,1.90
2022-12-24T14:56:20.272Z,2.05
2022-12-24T14:58:47.517Z,2.00
2022-12-24T15:01:27.557Z,1.50
2022-12-24T15:04:16.589Z,2.20
2022-12-24T15:06:57.660Z,1.80
2022-12-24T15:09:26.959Z,1.70
2022-12-24T15:12:00.094Z,1.85
2022-12-24T15:14:30.240Z,2.70
2022-12-24T15:17:04.012Z,2.50
2022-12-24T15:19:37.088Z,2.15
2022-12-24T15:22:08.059Z,2.35
2022-12-24T15:24:36.884Z,2.63
2022-12-24T15:27:15.061Z,2.13
2022-12-24T15:29:46.853Z,2.05
2022-12-24T15:32:16.346Z,1.95
2022-12-24T15:34:46.487Z,2.22
2022-12-24T15:37:22.887Z,3.75
2022-12-24T15:39:56.703Z,1.95
2022-12-24T15:42:24.738Z,1.80
2022-12-24T15:44:54.093Z,1.75
2022-12-24T15:47:27.732Z,2.13
2022-12-24T15:49:54.454Z,1.75
2022-12-24T15:52:26.579Z,1.85
2022-12-24T15:54:57.724Z,2.05
2022-12-24T15:57:30.351Z,2.88
2022-12-24T15:59:59.530Z,2.22
2022-12-24T16:02:39.822Z,2.25
2022-12-24T16:05:21.817Z,2.30
2022-12-24T16:08:09.381Z,1.48
2022-12-24T16:10:45.345Z,2.08
2022-12-24T16:13:28.605Z,1.95
2022-12-24T16:16:06.635Z,2.22
2022-12-24T16:18:36.791Z,2.35
2022-12-24T16:21:05.256Z,1.92
2022-12-24T16:23:37.591Z,2.15
2022-12-24T16:26:04.191Z,2.13
2022-12-24T16:28:31.652Z,1.80
2022-12-24T16:30:58.420Z,2.05
2022-12-24T16:33:25.035Z,2.20
2022-12-24T16:35:51.845Z,2.15
2022-12-24T16:38:18.362Z,2.75
2022-12-24T16:40:44.848Z,2.13
2022-12-24T16:43:46.458Z,2.15
2022-12-24T16:46:13.429Z,2.20
2022-12-24T16:48:40.380Z,2.00
2022-12-24T16:51:06.927Z,1.98
2022-12-24T16:53:33.368Z,2.50
2022-12-24T16:55:59.952Z,2.75
2022-12-24T16:58:26.504Z,2.35
2022-12-24T17:00:53.482Z,2.15
2022-12-24T17:03:20.043Z,2.42
2022-12-24T17:05:46.453Z,2.10
2022-12-24T17:08:13.701Z,2.75
2022-12-24T17:10:40.702Z,1.83
2022-12-24T17:13:07.204Z,1.90
2022-12-24T17:15:33.980Z,2.25
2022-12-24T17:18:00.449Z,1.98
2022-12-24T17:20:26.919Z,2.08
2022-12-24T17:22:53.441Z,2.40
2022-12-24T17:25:20.001Z,2.50
2022-12-24T17:27:46.485Z,2.50
2022-12-24T17:30:13.143Z,2.55
2022-12-24T17:32:39.657Z,2.55
2022-12-24T17:35:07.514Z,2.58
2022-12-24T17:37:34.040Z,2.95
2022-12-24T17:40:00.535Z,2.92
2022-12-24T17:42:27.040Z,2.40
2022-12-24T17:44:53.500Z,2.30
2022-12-24T17:47:19.951Z,3.28
2022-12-24T17:49:46.445Z,2.72
2022-12-24T17:52:12.986Z,2.25
2022-12-24T17:54:39.513Z,2.60
2022-12-24T17:57:05.979Z,2.35
2022-12-24T17:59:32.413Z,2.30
2022-12-24T18:01:59.015Z,2.90
2022-12-24T18:04:25.660Z,2.00
2022-12-24T18:06:57.774Z,1.50
2022-12-24T18:09:28.382Z,1.90
2022-12-24T18:11:54.926Z,2.35
2022-12-24T18:14:21.465Z,2.38
2022-12-24T18:16:49.265Z,2.13
2022-12-24T18:19:15.826Z,3.10
2022-12-24T18:21:42.302Z,3.08
2022-12-24T18:24:10.255Z,2.42
2022-12-24T18:26:36.820Z,2.53
2022-12-24T18:29:04.768Z,1.90
2022-12-24T18:31:33.415Z,2.22
2022-12-24T18:34:01.229Z,2.17
2022-12-24T18:36:27.781Z,2.25
2022-12-24T18:38:54.264Z,2.08
2022-12-24T18:41:26.598Z,2.28
2022-12-24T18:43:54.248Z,2.10
2022-12-24T18:46:23.717Z,1.90
2022-12-24T18:48:50.921Z,2.55
2022-12-24T18:51:19.950Z,2.00
2022-12-24T18:53:46.598Z,1.92
2022-12-24T18:56:15.784Z,2.33
2022-12-24T18:58:43.171Z,1.90
2022-12-24T19:01:11.332Z,1.90
2022-12-24T19:03:37.960Z,2.55
2022-12-24T19:06:04.797Z,2.22
2022-12-24T19:08:57.111Z,2.80
2022-12-24T19:11:18.070Z,2.17
2022-12-24T19:13:48.594Z,1.92
2022-12-24T19:16:16.220Z,2.22
2022-12-24T19:18:42.981Z,2.15
2022-12-24T19:21:12.692Z,2.05
2022-12-24T19:23:39.264Z,2.40
2022-12-24T19:26:06.076Z,2.50
2022-12-24T19:28:32.942Z,1.80
2022-12-24T19:31:08.352Z,1.75
2022-12-24T19:33:43.867Z,2.45
2022-12-24T19:36:14.541Z,2.10
2022-12-24T19:38:41.100Z,2.30
2022-12-24T19:41:22.134Z,4.60
2022-12-24T19:43:52.730Z,2.30
2022-12-24T19:46:22.049Z,3.15
2022-12-24T19:48:54.117Z,2.83
2022-12-24T19:51:21.420Z,2.83
2022-12-24T19:53:48.269Z,2.08
2022-12-24T19:56:16.700Z,2.15
2022-12-24T19:58:44.315Z,2.17
2022-12-24T20:01:16.680Z,2.10
2022-12-24T20:03:44.952Z,2.47
2022-12-24T20:06:13.059Z,1.90
2022-12-24T20:08:40.096Z,2.55
2022-12-24T20:11:09.711Z,2.78
2022-12-24T20:13:37.591Z,2.33
2022-12-24T20:16:06.780Z,2.38
2022-12-24T20:18:33.936Z,2.47
2022-12-24T20:21:06.667Z,3.08
2022-12-24T20:23:33.279Z,2.28
2022-12-24T20:26:01.730Z,2.85
2022-12-24T20:28:29.947Z,2.17
2022-12-24T20:30:56.670Z,2.10
2022-12-24T20:33:23.152Z,2.22
2022-12-24T20:35:49.951Z,2.40
2022-12-24T20:38:16.787Z,2.03
2022-12-24T20:40:44.807Z,2.10
2022-12-24T20:43:12.275Z,2.38
2022-12-24T20:45:38.943Z,2.05
2022-12-24T20:48:06.198Z,2.80
2022-12-24T20:50:32.704Z,2.47
2022-12-24T20:52:59.218Z,2.75
2022-12-24T20:55:25.712Z,3.03
2022-12-24T20:57:52.318Z,2.10
2022-12-24T21:00:19.886Z,1.83
2022-12-24T21:02:46.629Z,2.65
2022-12-24T21:05:13.431Z,2.83
2022-12-24T21:07:40.640Z,1.90
2022-12-24T21:10:07.765Z,2.35
2022-12-24T21:12:49.818Z,2.78
2022-12-24T21:15:17.641Z,2.38
2022-12-24T21:17:44.162Z,2.65
2022-12-24T21:20:11.793Z,2.30
2022-12-24T21:22:39.209Z,1.77
2022-12-24T21:25:07.062Z,1.98
2022-12-24T21:27:33.625Z,2.20
2022-12-24T21:30:00.205Z,4.80
2022-12-24T21:32:26.873Z,2.72
2022-12-24T21:34:53.407Z,2.55
2022-12-24T21:37:20.223Z,2.30
2022-12-24T21:39:47.997Z,1.83
2022-12-24T21:42:14.782Z,3.15
2022-12-24T21:44:41.330Z,3.83
2022-12-24T21:47:07.941Z,2.70
2022-12-24T21:49:53.405Z,2.50
2022-12-24T21:52:19.887Z,2.13
2022-12-24T21:54:46.429Z,3.28
2022-12-24T21:57:31.470Z,1.70
2022-12-24T22:00:18.863Z,2.15
2022-12-24T22:02:45.794Z,1.45
2022-12-24T22:05:12.420Z,2.75
2022-12-24T22:07:57.689Z,1.92
2022-12-24T22:10:43.172Z,1.95
2022-12-24T22:13:09.722Z,2.70
2022-12-24T22:15:41.893Z,2.65
2022-12-24T22:18:08.318Z,4.47
2022-12-24T22:20:36.370Z,1.83
2022-12-24T22:23:02.953Z,2.45
2022-12-24T22:25:30.598Z,2.92
2022-12-24T22:27:57.639Z,2.33
2022-12-24T22:30:24.173Z,2.47
2022-12-24T22:32:50.753Z,1.92
2022-12-24T22:35:17.282Z,3.25
2022-12-24T22:37:44.297Z,1.98
2022-12-24T22:40:11.778Z,3.05
2022-12-24T22:42:38.297Z,2.72
2022-12-24T22:45:05.860Z,2.08
2022-12-24T22:47:32.365Z,2.28
2022-12-24T22:49:58.860Z,2.42
2022-12-24T22:52:25.527Z,2.03
2022-12-24T22:54:52.045Z,1.92
2022-12-24T22:57:18.625Z,3.22
2022-12-24T22:59:45.089Z,2.17
2022-12-24T23:02:13.365Z,2.67
2022-12-24T23:04:40.872Z,2.72
2022-12-24T23:07:09.620Z,2.05
2022-12-24T23:09:36.484Z,2.30
2022-12-24T23:12:03.437Z,2.75
2022-12-24T23:14:48.360Z,2.47
2022-12-24T23:17:15.025Z,2.47
2022-12-24T23:19:41.697Z,2.10
2022-12-24T23:22:08.253Z,1.95
2022-12-24T23:24:35.176Z,2.08
2022-12-24T23:27:01.802Z,3.45
2022-12-24T23:29:29.585Z,2.30
2022-12-24T23:31:56.103Z,1.73
2022-12-24T23:34:22.716Z,2.95
2022-12-24T23:36:49.144Z,2.47
2022-12-24T23:39:15.914Z,2.33
2022-12-24T23:41:42.493Z,2.47
2022-12-24T23:44:08.970Z,2.20
2022-12-24T23:46:35.495Z,2.13
2022-12-24T23:49:01.958Z,2.38
2022-12-24T23:51:28.865Z,3.92
2022-12-24T23:53:56.598Z,3.05
2022-12-24T23:56:25.003Z,1.40
2022-12-24T23:58:51.907Z,2.08
